Wetterverlauf

Letzte Wetterlage 20.08.2014 14:16
Wetterdiagramm
Tabellarische Darstellung
Datum Temperatur Windchill Feuchte Luftdruck Windrichtung Windstärke Niederschlag
20.08.2014 14:16 14,2 °C 14,2 °C 59 % 1014,4 hPa 0,00 mm
20.08.2014 13:55 14,3 °C 14,3 °C 61 % 1014,4 hPa 0,00 mm
20.08.2014 13:35 13,7 °C 13,7 °C 60 % 1014,4 hPa 0,00 mm
20.08.2014 13:15 14,1 °C 14,1 °C 59 % 1014,4 hPa 0,00 mm
20.08.2014 12:54 13,7 °C 13,7 °C 59 % 1015,2 hPa 0,00 mm
20.08.2014 12:34 13,2 °C 13,2 °C 58 % 1014,4 hPa 0,00 mm
20.08.2014 12:13 13,3 °C 13,3 °C 58 % 1014,4 hPa 0,00 mm
20.08.2014 11:53 13,8 °C 13,8 °C 59 % 1014,4 hPa 0,00 mm
20.08.2014 11:33 13,8 °C 13,8 °C 61 % 1014,4 hPa 0,00 mm
20.08.2014 11:12 12,8 °C 12,8 °C 64 % 1014,4 hPa 0,00 mm
20.08.2014 10:52 12,8 °C 12,8 °C 67 % 1015,3 hPa 0,00 mm
20.08.2014 10:31 12,8 °C 12,8 °C 69 % 1014,4 hPa 0,00 mm
20.08.2014 10:11 12,4 °C 12,4 °C 71 % 1014,4 hPa 0,00 mm
20.08.2014 09:50 11,7 °C 11,7 °C 72 % 1014,4 hPa 0,00 mm
20.08.2014 09:30 11,1 °C 11,1 °C 75 % 1014,4 hPa 0,00 mm
20.08.2014 09:09 11,1 °C 11,1 °C 75 % 1014,4 hPa 0,00 mm
20.08.2014 08:48 10,1 °C 10,1 °C 77 % 1014,4 hPa 0,00 mm
20.08.2014 08:27 9,7 °C 9,7 °C 78 % 1014,4 hPa 0,00 mm
20.08.2014 08:06 9,5 °C 9,5 °C 78 % 1014,4 hPa 0,00 mm
20.08.2014 07:45 9,4 °C 9,4 °C 78 % 1013,4 hPa 0,00 mm
20.08.2014 07:25 9,0 °C 9,0 °C 80 % 1013,4 hPa 0,00 mm
20.08.2014 07:04 8,2 °C 8,2 °C 83 % 1013,4 hPa 0,00 mm
20.08.2014 06:44 7,5 °C 7,5 °C 84 % 1013,4 hPa 0,00 mm
20.08.2014 06:24 7,3 °C 7,3 °C 85 % 1013,4 hPa 0,00 mm
20.08.2014 06:03 6,9 °C 6,9 °C 85 % 1013,4 hPa 0,00 mm
Empfehlen Sie wetter.com
| Mehr
Neue Wetterwarnung

Neue Niederschlagsmeldung
Neue Meldung
Regen Liveticker
    sehr starker Regen/Gewitter
    starker Regen/Gewitter
    mäßiger bis starker Regen
    mäßiger Regen
    leichter bis mäßiger Regen
    kein Regen